sensor_id;sensor_type;location;lat;lon;timestamp;P1;durP1;ratioP1;P2;durP2;ratioP2
17658;SDS011;8948;51.534;8.262;2023-02-23T00:01:28;44.03;;;26.80;;
17658;SDS011;8948;51.534;8.262;2023-02-23T00:06:29;48.83;;;28.50;;
17658;SDS011;8948;51.534;8.262;2023-02-23T00:11:32;51.00;;;28.27;;
17658;SDS011;8948;51.534;8.262;2023-02-23T00:16:32;47.97;;;29.20;;
17658;SDS011;8948;51.534;8.262;2023-02-23T00:21:33;45.90;;;27.23;;
17658;SDS011;8948;51.534;8.262;2023-02-23T00:26:35;46.93;;;28.57;;
17658;SDS011;8948;51.534;8.262;2023-02-23T00:31:37;48.10;;;29.27;;
17658;SDS011;8948;51.534;8.262;2023-02-23T00:36:37;48.10;;;29.90;;
17658;SDS011;8948;51.534;8.262;2023-02-23T00:41:38;49.47;;;29.40;;
17658;SDS011;8948;51.534;8.262;2023-02-23T00:46:39;44.73;;;28.33;;
17658;SDS011;8948;51.534;8.262;2023-02-23T00:51:42;51.70;;;29.23;;
17658;SDS011;8948;51.534;8.262;2023-02-23T00:56:42;52.83;;;31.33;;
17658;SDS011;8948;51.534;8.262;2023-02-23T01:01:43;50.53;;;29.70;;
17658;SDS011;8948;51.534;8.262;2023-02-23T01:06:44;45.27;;;27.03;;
17658;SDS011;8948;51.534;8.262;2023-02-23T01:11:45;45.27;;;29.03;;
17658;SDS011;8948;51.534;8.262;2023-02-23T01:16:45;51.80;;;29.33;;
17658;SDS011;8948;51.534;8.262;2023-02-23T01:21:46;43.90;;;26.40;;
17658;SDS011;8948;51.534;8.262;2023-02-23T01:26:47;44.33;;;25.30;;
17658;SDS011;8948;51.534;8.262;2023-02-23T01:31:47;45.20;;;26.50;;
17658;SDS011;8948;51.534;8.262;2023-02-23T01:36:51;43.00;;;25.60;;
17658;SDS011;8948;51.534;8.262;2023-02-23T01:41:52;43.47;;;25.40;;
17658;SDS011;8948;51.534;8.262;2023-02-23T01:46:54;45.80;;;26.83;;
17658;SDS011;8948;51.534;8.262;2023-02-23T01:52:02;45.97;;;28.13;;
17658;SDS011;8948;51.534;8.262;2023-02-23T01:57:06;45.63;;;28.37;;
17658;SDS011;8948;51.534;8.262;2023-02-23T02:02:12;55.97;;;30.70;;
17658;SDS011;8948;51.534;8.262;2023-02-23T02:07:16;57.53;;;33.80;;
17658;SDS011;8948;51.534;8.262;2023-02-23T02:12:20;66.70;;;35.83;;
17658;SDS011;8948;51.534;8.262;2023-02-23T02:17:26;70.77;;;38.30;;
17658;SDS011;8948;51.534;8.262;2023-02-23T02:44:27;75.63;;;42.33;;
17658;SDS011;8948;51.534;8.262;2023-02-23T02:50:21;79.83;;;41.63;;
17658;SDS011;8948;51.534;8.262;2023-02-23T02:55:15;72.40;;;40.00;;
17658;SDS011;8948;51.534;8.262;2023-02-23T03:00:30;75.37;;;41.27;;
17658;SDS011;8948;51.534;8.262;2023-02-23T03:05:54;83.07;;;42.90;;
17658;SDS011;8948;51.534;8.262;2023-02-23T03:11:13;72.93;;;39.40;;
17658;SDS011;8948;51.534;8.262;2023-02-23T03:16:38;74.83;;;41.50;;
17658;SDS011;8948;51.534;8.262;2023-02-23T03:22:16;71.20;;;39.87;;
17658;SDS011;8948;51.534;8.262;2023-02-23T03:39:30;67.97;;;38.77;;
17658;SDS011;8948;51.534;8.262;2023-02-23T03:44:54;73.50;;;38.90;;
17658;SDS011;8948;51.534;8.262;2023-02-23T03:50:28;73.93;;;39.17;;
17658;SDS011;8948;51.534;8.262;2023-02-23T03:55:52;57.53;;;33.23;;
17658;SDS011;8948;51.534;8.262;2023-02-23T04:01:14;61.37;;;34.83;;
17658;SDS011;8948;51.534;8.262;2023-02-23T04:06:37;65.30;;;36.10;;
17658;SDS011;8948;51.534;8.262;2023-02-23T04:17:29;67.97;;;38.57;;
17658;SDS011;8948;51.534;8.262;2023-02-23T04:22:30;73.10;;;39.00;;
17658;SDS011;8948;51.534;8.262;2023-02-23T04:27:31;77.07;;;39.40;;
17658;SDS011;8948;51.534;8.262;2023-02-23T04:32:31;70.97;;;39.40;;
17658;SDS011;8948;51.534;8.262;2023-02-23T04:37:32;80.30;;;40.80;;
17658;SDS011;8948;51.534;8.262;2023-02-23T04:42:32;72.20;;;40.50;;
17658;SDS011;8948;51.534;8.262;2023-02-23T04:47:33;75.37;;;38.47;;
17658;SDS011;8948;51.534;8.262;2023-02-23T04:52:33;75.87;;;41.43;;
17658;SDS011;8948;51.534;8.262;2023-02-23T04:57:34;40.73;;;22.03;;
17658;SDS011;8948;51.534;8.262;2023-02-23T05:02:35;62.83;;;34.37;;
17658;SDS011;8948;51.534;8.262;2023-02-23T05:07:35;61.33;;;28.73;;
17658;SDS011;8948;51.534;8.262;2023-02-23T05:12:36;48.67;;;27.70;;
17658;SDS011;8948;51.534;8.262;2023-02-23T05:17:38;48.23;;;26.73;;
17658;SDS011;8948;51.534;8.262;2023-02-23T05:22:40;52.50;;;29.23;;
17658;SDS011;8948;51.534;8.262;2023-02-23T05:27:41;43.40;;;26.27;;
17658;SDS011;8948;51.534;8.262;2023-02-23T05:32:42;54.10;;;30.97;;
17658;SDS011;8948;51.534;8.262;2023-02-23T05:37:42;49.27;;;29.30;;
17658;SDS011;8948;51.534;8.262;2023-02-23T05:42:43;65.80;;;35.83;;
17658;SDS011;8948;51.534;8.262;2023-02-23T05:47:44;67.17;;;38.67;;
17658;SDS011;8948;51.534;8.262;2023-02-23T05:52:44;65.53;;;38.00;;
17658;SDS011;8948;51.534;8.262;2023-02-23T05:57:45;67.80;;;38.73;;
17658;SDS011;8948;51.534;8.262;2023-02-23T06:02:45;71.07;;;39.17;;
17658;SDS011;8948;51.534;8.262;2023-02-23T06:07:46;65.30;;;38.17;;
17658;SDS011;8948;51.534;8.262;2023-02-23T06:12:47;68.90;;;38.00;;
17658;SDS011;8948;51.534;8.262;2023-02-23T06:17:47;68.97;;;38.23;;
17658;SDS011;8948;51.534;8.262;2023-02-23T06:22:48;75.50;;;42.47;;
17658;SDS011;8948;51.534;8.262;2023-02-23T06:27:49;81.33;;;42.97;;
17658;SDS011;8948;51.534;8.262;2023-02-23T06:32:49;74.23;;;40.80;;
17658;SDS011;8948;51.534;8.262;2023-02-23T06:37:50;83.00;;;42.07;;
17658;SDS011;8948;51.534;8.262;2023-02-23T06:42:50;81.20;;;43.43;;
17658;SDS011;8948;51.534;8.262;2023-02-23T06:47:51;76.30;;;42.50;;
17658;SDS011;8948;51.534;8.262;2023-02-23T06:52:52;81.63;;;43.70;;
17658;SDS011;8948;51.534;8.262;2023-02-23T06:57:53;83.77;;;44.13;;
17658;SDS011;8948;51.534;8.262;2023-02-23T07:02:53;89.07;;;45.70;;
17658;SDS011;8948;51.534;8.262;2023-02-23T07:07:56;93.13;;;45.57;;
17658;SDS011;8948;51.534;8.262;2023-02-23T07:12:57;77.47;;;38.10;;
17658;SDS011;8948;51.534;8.262;2023-02-23T07:17:58;78.40;;;41.03;;
17658;SDS011;8948;51.534;8.262;2023-02-23T07:22:59;99.37;;;50.83;;
17658;SDS011;8948;51.534;8.262;2023-02-23T07:28:00;89.53;;;47.20;;
17658;SDS011;8948;51.534;8.262;2023-02-23T07:33:01;98.53;;;49.07;;
17658;SDS011;8948;51.534;8.262;2023-02-23T07:38:01;100.23;;;49.80;;
17658;SDS011;8948;51.534;8.262;2023-02-23T07:43:03;97.60;;;49.70;;
17658;SDS011;8948;51.534;8.262;2023-02-23T07:48:03;95.97;;;50.80;;
17658;SDS011;8948;51.534;8.262;2023-02-23T07:53:04;94.47;;;49.17;;
17658;SDS011;8948;51.534;8.262;2023-02-23T07:58:05;100.10;;;52.50;;
17658;SDS011;8948;51.534;8.262;2023-02-23T08:03:06;97.63;;;50.10;;
17658;SDS011;8948;51.534;8.262;2023-02-23T08:08:07;89.63;;;48.93;;
17658;SDS011;8948;51.534;8.262;2023-02-23T08:13:07;85.53;;;45.87;;
17658;SDS011;8948;51.534;8.262;2023-02-23T08:18:08;89.47;;;48.90;;
17658;SDS011;8948;51.534;8.262;2023-02-23T08:23:09;88.23;;;47.93;;
17658;SDS011;8948;51.534;8.262;2023-02-23T08:28:10;93.03;;;49.83;;
17658;SDS011;8948;51.534;8.262;2023-02-23T08:33:11;85.30;;;45.80;;
17658;SDS011;8948;51.534;8.262;2023-02-23T08:38:12;70.47;;;40.70;;
17658;SDS011;8948;51.534;8.262;2023-02-23T08:43:12;65.50;;;38.27;;
17658;SDS011;8948;51.534;8.262;2023-02-23T08:48:13;75.60;;;44.73;;
17658;SDS011;8948;51.534;8.262;2023-02-23T08:53:16;76.37;;;43.90;;
17658;SDS011;8948;51.534;8.262;2023-02-23T08:58:17;76.23;;;43.23;;
17658;SDS011;8948;51.534;8.262;2023-02-23T09:03:21;75.60;;;44.03;;
17658;SDS011;8948;51.534;8.262;2023-02-23T09:08:22;84.57;;;45.90;;
17658;SDS011;8948;51.534;8.262;2023-02-23T09:13:23;86.17;;;48.43;;
17658;SDS011;8948;51.534;8.262;2023-02-23T09:18:24;97.33;;;52.33;;
17658;SDS011;8948;51.534;8.262;2023-02-23T09:23:27;109.97;;;55.40;;
17658;SDS011;8948;51.534;8.262;2023-02-23T09:28:28;106.70;;;56.27;;
17658;SDS011;8948;51.534;8.262;2023-02-23T09:33:29;114.30;;;57.43;;
17658;SDS011;8948;51.534;8.262;2023-02-23T09:38:30;96.37;;;53.07;;
17658;SDS011;8948;51.534;8.262;2023-02-23T09:49:10;100.70;;;52.77;;
17658;SDS011;8948;51.534;8.262;2023-02-23T09:54:17;85.40;;;47.03;;
17658;SDS011;8948;51.534;8.262;2023-02-23T09:59:21;94.43;;;49.90;;
17658;SDS011;8948;51.534;8.262;2023-02-23T10:04:23;96.50;;;49.57;;
17658;SDS011;8948;51.534;8.262;2023-02-23T10:09:54;92.57;;;50.87;;
17658;SDS011;8948;51.534;8.262;2023-02-23T10:15:03;88.57;;;48.57;;
17658;SDS011;8948;51.534;8.262;2023-02-23T10:26:03;111.70;;;53.97;;
17658;SDS011;8948;51.534;8.262;2023-02-23T10:36:37;113.57;;;56.90;;
17658;SDS011;8948;51.534;8.262;2023-02-23T10:41:51;115.73;;;56.63;;
17658;SDS011;8948;51.534;8.262;2023-02-23T10:47:00;122.33;;;59.03;;
17658;SDS011;8948;51.534;8.262;2023-02-23T10:52:17;118.27;;;55.90;;
17658;SDS011;8948;51.534;8.262;2023-02-23T10:57:39;113.10;;;55.47;;
17658;SDS011;8948;51.534;8.262;2023-02-23T11:02:40;120.27;;;54.40;;
17658;SDS011;8948;51.534;8.262;2023-02-23T11:07:42;105.20;;;51.47;;
17658;SDS011;8948;51.534;8.262;2023-02-23T11:12:44;110.87;;;52.50;;
17658;SDS011;8948;51.534;8.262;2023-02-23T11:17:44;118.00;;;53.10;;
17658;SDS011;8948;51.534;8.262;2023-02-23T11:22:45;126.97;;;54.10;;
17658;SDS011;8948;51.534;8.262;2023-02-23T11:27:46;121.40;;;52.77;;
17658;SDS011;8948;51.534;8.262;2023-02-23T11:32:51;101.97;;;48.93;;
17658;SDS011;8948;51.534;8.262;2023-02-23T11:37:57;101.17;;;47.97;;
17658;SDS011;8948;51.534;8.262;2023-02-23T11:43:06;103.13;;;48.53;;
17658;SDS011;8948;51.534;8.262;2023-02-23T11:48:14;100.83;;;48.50;;
17658;SDS011;8948;51.534;8.262;2023-02-23T11:53:28;100.03;;;47.73;;
17658;SDS011;8948;51.534;8.262;2023-02-23T11:58:43;98.20;;;45.07;;
17658;SDS011;8948;51.534;8.262;2023-02-23T12:03:49;88.60;;;43.07;;
17658;SDS011;8948;51.534;8.262;2023-02-23T12:08:54;78.97;;;40.23;;
17658;SDS011;8948;51.534;8.262;2023-02-23T12:14:02;87.47;;;43.07;;
17658;SDS011;8948;51.534;8.262;2023-02-23T12:19:59;76.23;;;39.53;;
17658;SDS011;8948;51.534;8.262;2023-02-23T12:25:01;90.30;;;45.03;;
17658;SDS011;8948;51.534;8.262;2023-02-23T12:40:24;79.30;;;39.23;;
17658;SDS011;8948;51.534;8.262;2023-02-23T12:45:31;79.93;;;38.97;;
17658;SDS011;8948;51.534;8.262;2023-02-23T12:50:40;77.67;;;38.70;;
17658;SDS011;8948;51.534;8.262;2023-02-23T13:01:20;67.47;;;34.93;;
17658;SDS011;8948;51.534;8.262;2023-02-23T13:06:32;62.50;;;33.23;;
17658;SDS011;8948;51.534;8.262;2023-02-23T13:16:54;70.53;;;35.67;;
17658;SDS011;8948;51.534;8.262;2023-02-23T13:22:05;66.93;;;35.20;;
17658;SDS011;8948;51.534;8.262;2023-02-23T13:27:26;85.10;;;41.43;;
17658;SDS011;8948;51.534;8.262;2023-02-23T13:32:33;100.43;;;42.40;;
17658;SDS011;8948;51.534;8.262;2023-02-23T13:37:38;98.43;;;42.63;;
17658;SDS011;8948;51.534;8.262;2023-02-23T13:42:47;99.93;;;41.70;;
17658;SDS011;8948;51.534;8.262;2023-02-23T13:53:05;96.83;;;38.80;;
17658;SDS011;8948;51.534;8.262;2023-02-23T13:58:26;78.10;;;33.83;;
17658;SDS011;8948;51.534;8.262;2023-02-23T14:03:29;70.53;;;29.87;;
17658;SDS011;8948;51.534;8.262;2023-02-23T14:08:34;71.77;;;29.63;;
17658;SDS011;8948;51.534;8.262;2023-02-23T14:13:40;65.07;;;28.20;;
17658;SDS011;8948;51.534;8.262;2023-02-23T14:19:29;79.87;;;31.90;;
17658;SDS011;8948;51.534;8.262;2023-02-23T14:24:35;74.83;;;32.17;;
17658;SDS011;8948;51.534;8.262;2023-02-23T14:29:42;60.63;;;25.93;;
17658;SDS011;8948;51.534;8.262;2023-02-23T14:39:53;76.00;;;29.67;;
17658;SDS011;8948;51.534;8.262;2023-02-23T14:45:04;74.77;;;30.13;;
17658;SDS011;8948;51.534;8.262;2023-02-23T14:50:21;79.73;;;30.50;;
17658;SDS011;8948;51.534;8.262;2023-02-23T14:55:29;76.07;;;29.30;;
17658;SDS011;8948;51.534;8.262;2023-02-23T15:00:32;70.83;;;28.00;;
17658;SDS011;8948;51.534;8.262;2023-02-23T15:05:41;70.37;;;27.50;;
17658;SDS011;8948;51.534;8.262;2023-02-23T15:16:02;66.93;;;26.53;;
17658;SDS011;8948;51.534;8.262;2023-02-23T15:21:12;71.30;;;28.87;;
17658;SDS011;8948;51.534;8.262;2023-02-23T15:26:25;76.77;;;29.70;;
17658;SDS011;8948;51.534;8.262;2023-02-23T15:31:30;64.43;;;26.17;;
17658;SDS011;8948;51.534;8.262;2023-02-23T15:36:32;60.33;;;25.23;;
17658;SDS011;8948;51.534;8.262;2023-02-23T15:41:35;54.50;;;22.00;;
17658;SDS011;8948;51.534;8.262;2023-02-23T15:46:37;59.13;;;22.60;;
17658;SDS011;8948;51.534;8.262;2023-02-23T15:51:42;68.47;;;26.20;;
17658;SDS011;8948;51.534;8.262;2023-02-23T15:56:50;71.77;;;27.90;;
17658;SDS011;8948;51.534;8.262;2023-02-23T16:01:57;71.27;;;26.87;;
17658;SDS011;8948;51.534;8.262;2023-02-23T16:07:16;71.87;;;26.43;;
17658;SDS011;8948;51.534;8.262;2023-02-23T16:22:24;66.40;;;24.80;;
17658;SDS011;8948;51.534;8.262;2023-02-23T16:27:27;64.43;;;23.70;;
17658;SDS011;8948;51.534;8.262;2023-02-23T16:32:33;62.77;;;23.37;;
17658;SDS011;8948;51.534;8.262;2023-02-23T16:37:48;62.10;;;24.37;;
17658;SDS011;8948;51.534;8.262;2023-02-23T16:42:51;50.70;;;21.70;;
17658;SDS011;8948;51.534;8.262;2023-02-23T16:47:53;49.30;;;21.67;;
17658;SDS011;8948;51.534;8.262;2023-02-23T16:52:55;58.83;;;22.10;;
17658;SDS011;8948;51.534;8.262;2023-02-23T16:57:56;59.30;;;21.83;;
17658;SDS011;8948;51.534;8.262;2023-02-23T17:03:01;52.17;;;21.67;;
17658;SDS011;8948;51.534;8.262;2023-02-23T17:08:05;56.97;;;21.97;;
17658;SDS011;8948;51.534;8.262;2023-02-23T17:13:07;56.57;;;21.43;;
17658;SDS011;8948;51.534;8.262;2023-02-23T17:18:14;50.60;;;20.77;;
17658;SDS011;8948;51.534;8.262;2023-02-23T17:23:15;55.33;;;21.33;;
17658;SDS011;8948;51.534;8.262;2023-02-23T17:28:17;54.93;;;21.70;;
17658;SDS011;8948;51.534;8.262;2023-02-23T17:33:17;51.20;;;21.23;;
17658;SDS011;8948;51.534;8.262;2023-02-23T17:38:18;53.60;;;21.77;;
17658;SDS011;8948;51.534;8.262;2023-02-23T17:43:20;53.20;;;20.87;;
17658;SDS011;8948;51.534;8.262;2023-02-23T17:48:21;49.00;;;20.93;;
17658;SDS011;8948;51.534;8.262;2023-02-23T17:53:22;56.00;;;21.83;;
17658;SDS011;8948;51.534;8.262;2023-02-23T17:58:24;66.57;;;21.93;;
17658;SDS011;8948;51.534;8.262;2023-02-23T18:03:25;64.30;;;20.80;;
17658;SDS011;8948;51.534;8.262;2023-02-23T18:08:30;60.60;;;21.47;;
17658;SDS011;8948;51.534;8.262;2023-02-23T18:13:31;57.03;;;21.20;;
17658;SDS011;8948;51.534;8.262;2023-02-23T18:18:32;67.07;;;21.13;;
17658;SDS011;8948;51.534;8.262;2023-02-23T18:23:33;62.73;;;22.27;;
17658;SDS011;8948;51.534;8.262;2023-02-23T18:28:35;61.70;;;21.23;;
17658;SDS011;8948;51.534;8.262;2023-02-23T18:33:37;71.10;;;22.47;;
17658;SDS011;8948;51.534;8.262;2023-02-23T18:38:38;66.93;;;22.37;;
17658;SDS011;8948;51.534;8.262;2023-02-23T18:43:38;78.77;;;25.47;;
17658;SDS011;8948;51.534;8.262;2023-02-23T18:48:39;68.87;;;23.07;;
17658;SDS011;8948;51.534;8.262;2023-02-23T18:53:41;70.33;;;22.40;;
17658;SDS011;8948;51.534;8.262;2023-02-23T18:58:43;77.70;;;24.10;;
17658;SDS011;8948;51.534;8.262;2023-02-23T19:03:45;67.67;;;24.20;;
17658;SDS011;8948;51.534;8.262;2023-02-23T19:08:47;72.10;;;23.73;;
17658;SDS011;8948;51.534;8.262;2023-02-23T19:13:57;63.83;;;23.07;;
17658;SDS011;8948;51.534;8.262;2023-02-23T19:19:00;78.87;;;24.87;;
17658;SDS011;8948;51.534;8.262;2023-02-23T19:24:03;73.40;;;24.30;;
17658;SDS011;8948;51.534;8.262;2023-02-23T19:29:04;79.87;;;24.23;;
17658;SDS011;8948;51.534;8.262;2023-02-23T19:34:05;80.03;;;24.53;;
17658;SDS011;8948;51.534;8.262;2023-02-23T19:39:07;81.97;;;23.47;;
17658;SDS011;8948;51.534;8.262;2023-02-23T19:44:15;83.27;;;25.57;;
17658;SDS011;8948;51.534;8.262;2023-02-23T19:49:16;81.17;;;26.83;;
17658;SDS011;8948;51.534;8.262;2023-02-23T19:54:16;88.13;;;26.43;;
17658;SDS011;8948;51.534;8.262;2023-02-23T19:59:17;80.57;;;24.37;;
17658;SDS011;8948;51.534;8.262;2023-02-23T20:04:18;89.53;;;26.93;;
17658;SDS011;8948;51.534;8.262;2023-02-23T20:09:18;77.13;;;25.87;;
17658;SDS011;8948;51.534;8.262;2023-02-23T20:14:19;94.90;;;26.87;;
17658;SDS011;8948;51.534;8.262;2023-02-23T20:19:19;90.00;;;28.67;;
17658;SDS011;8948;51.534;8.262;2023-02-23T20:24:20;85.60;;;25.30;;
17658;SDS011;8948;51.534;8.262;2023-02-23T20:29:21;87.37;;;26.07;;
17658;SDS011;8948;51.534;8.262;2023-02-23T20:34:22;81.13;;;25.47;;
17658;SDS011;8948;51.534;8.262;2023-02-23T20:39:23;94.57;;;28.80;;
17658;SDS011;8948;51.534;8.262;2023-02-23T20:44:25;98.67;;;28.30;;
17658;SDS011;8948;51.534;8.262;2023-02-23T20:49:28;116.00;;;30.70;;
17658;SDS011;8948;51.534;8.262;2023-02-23T20:54:28;95.57;;;28.40;;
17658;SDS011;8948;51.534;8.262;2023-02-23T20:59:29;118.93;;;30.37;;
17658;SDS011;8948;51.534;8.262;2023-02-23T21:04:30;108.63;;;29.77;;
17658;SDS011;8948;51.534;8.262;2023-02-23T21:09:31;104.47;;;28.33;;
17658;SDS011;8948;51.534;8.262;2023-02-23T21:14:31;95.67;;;28.10;;
17658;SDS011;8948;51.534;8.262;2023-02-23T21:19:32;107.43;;;30.43;;
17658;SDS011;8948;51.534;8.262;2023-02-23T21:24:33;106.33;;;29.63;;
17658;SDS011;8948;51.534;8.262;2023-02-23T21:29:40;100.17;;;29.10;;
17658;SDS011;8948;51.534;8.262;2023-02-23T21:34:41;107.67;;;29.50;;
17658;SDS011;8948;51.534;8.262;2023-02-23T21:39:42;96.77;;;30.03;;
17658;SDS011;8948;51.534;8.262;2023-02-23T21:44:45;105.53;;;28.57;;
17658;SDS011;8948;51.534;8.262;2023-02-23T21:49:47;98.53;;;29.83;;
17658;SDS011;8948;51.534;8.262;2023-02-23T21:54:51;100.60;;;30.13;;
17658;SDS011;8948;51.534;8.262;2023-02-23T21:59:52;105.10;;;30.33;;
17658;SDS011;8948;51.534;8.262;2023-02-23T22:04:53;116.93;;;32.37;;
17658;SDS011;8948;51.534;8.262;2023-02-23T22:09:53;108.67;;;30.50;;
17658;SDS011;8948;51.534;8.262;2023-02-23T22:14:54;111.17;;;32.23;;
17658;SDS011;8948;51.534;8.262;2023-02-23T22:19:55;115.40;;;20.63;;
17658;SDS011;8948;51.534;8.262;2023-02-23T22:24:56;236.67;;;17.57;;
17658;SDS011;8948;51.534;8.262;2023-02-23T22:29:56;127.83;;;15.67;;
17658;SDS011;8948;51.534;8.262;2023-02-23T22:34:58;411.20;;;20.43;;
17658;SDS011;8948;51.534;8.262;2023-02-23T22:39:59;369.50;;;20.73;;
17658;SDS011;8948;51.534;8.262;2023-02-23T22:45:00;180.93;;;18.97;;
17658;SDS011;8948;51.534;8.262;2023-02-23T22:50:01;147.10;;;17.97;;
17658;SDS011;8948;51.534;8.262;2023-02-23T22:55:02;241.50;;;17.53;;
17658;SDS011;8948;51.534;8.262;2023-02-23T23:00:03;221.10;;;18.53;;
17658;SDS011;8948;51.534;8.262;2023-02-23T23:05:09;281.87;;;19.63;;
17658;SDS011;8948;51.534;8.262;2023-02-23T23:10:11;324.83;;;19.33;;
17658;SDS011;8948;51.534;8.262;2023-02-23T23:15:13;131.03;;;13.70;;
17658;SDS011;8948;51.534;8.262;2023-02-23T23:20:17;358.07;;;18.63;;
17658;SDS011;8948;51.534;8.262;2023-02-23T23:25:21;56.33;;;11.93;;
17658;SDS011;8948;51.534;8.262;2023-02-23T23:30:22;51.43;;;11.13;;
17658;SDS011;8948;51.534;8.262;2023-02-23T23:35:27;43.60;;;10.13;;
17658;SDS011;8948;51.534;8.262;2023-02-23T23:40:28;33.30;;;9.80;;
17658;SDS011;8948;51.534;8.262;2023-02-23T23:45:34;40.30;;;9.70;;
17658;SDS011;8948;51.534;8.262;2023-02-23T23:50:38;33.73;;;9.20;;
17658;SDS011;8948;51.534;8.262;2023-02-23T23:55:39;44.73;;;9.67;;
